Terminal Aerodrome Forecast
Issued by NWS

Home | Current Version | Previous Version | Text Only | Print | Product List | Glossary On
Versions: 1 2 3 4 5 6 7 8 9 10 11 12 13 14 15 16 17 18
000
FTUS46 KSEW 011344 AAA
TAFPAE
TAF AMD
KPAE 011344Z 0114/0212 35003KT 2SM -RA BR BKN010 OVC013
      TEMPO 0114/0118 -RA BKN020 OVC040
     FM011800 19008KT P6SM -SHRA SCT025 BKN045
     FM021000 19008KT P6SM BKN022 OVC035=

USA.gov is the U.S. government's official web portal to all federal, state and local government web resources and services.